sensor_id;sensor_type;location;lat;lon;timestamp;P1;durP1;ratioP1;P2;durP2;ratioP2
73337;SDS011;61575;49.908;35.556;2024-03-02T00:04:30;16.58;;;6.88;;
73337;SDS011;61575;49.908;35.556;2024-03-02T00:07:32;17.35;;;8.13;;
73337;SDS011;61575;49.908;35.556;2024-03-02T00:10:38;15.10;;;6.65;;
73337;SDS011;61575;49.908;35.556;2024-03-02T00:13:42;19.80;;;7.38;;
73337;SDS011;61575;49.908;35.556;2024-03-02T00:16:44;20.30;;;8.33;;
73337;SDS011;61575;49.908;35.556;2024-03-02T00:19:46;21.25;;;8.05;;
73337;SDS011;61575;49.908;35.556;2024-03-02T00:22:49;18.58;;;7.05;;
73337;SDS011;61575;49.908;35.556;2024-03-02T00:25:53;20.33;;;8.25;;
73337;SDS011;61575;49.908;35.556;2024-03-02T00:28:56;18.85;;;7.72;;
73337;SDS011;61575;49.908;35.556;2024-03-02T00:31:59;23.25;;;7.38;;
73337;SDS011;61575;49.908;35.556;2024-03-02T00:35:04;16.83;;;6.80;;
73337;SDS011;61575;49.908;35.556;2024-03-02T00:38:06;17.77;;;7.65;;
73337;SDS011;61575;49.908;35.556;2024-03-02T00:41:09;16.05;;;6.90;;
73337;SDS011;61575;49.908;35.556;2024-03-02T00:44:19;16.73;;;7.45;;
73337;SDS011;61575;49.908;35.556;2024-03-02T00:47:26;17.88;;;7.28;;
73337;SDS011;61575;49.908;35.556;2024-03-02T00:50:28;16.53;;;6.87;;
73337;SDS011;61575;49.908;35.556;2024-03-02T00:56:36;22.80;;;8.60;;
73337;SDS011;61575;49.908;35.556;2024-03-02T00:59:38;17.17;;;6.82;;
73337;SDS011;61575;49.908;35.556;2024-03-02T01:02:40;19.38;;;7.45;;
73337;SDS011;61575;49.908;35.556;2024-03-02T01:05:43;16.05;;;7.13;;
73337;SDS011;61575;49.908;35.556;2024-03-02T01:08:45;13.25;;;5.38;;
73337;SDS011;61575;49.908;35.556;2024-03-02T01:11:51;18.55;;;6.97;;
73337;SDS011;61575;49.908;35.556;2024-03-02T01:14:53;16.20;;;7.07;;
73337;SDS011;61575;49.908;35.556;2024-03-02T01:17:55;14.00;;;6.25;;
73337;SDS011;61575;49.908;35.556;2024-03-02T01:20:57;14.80;;;6.55;;
73337;SDS011;61575;49.908;35.556;2024-03-02T01:24:00;14.10;;;5.55;;
73337;SDS011;61575;49.908;35.556;2024-03-02T01:27:02;11.02;;;4.38;;
73337;SDS011;61575;49.908;35.556;2024-03-02T01:30:04;18.75;;;6.43;;
73337;SDS011;61575;49.908;35.556;2024-03-02T01:36:09;16.65;;;6.97;;
73337;SDS011;61575;49.908;35.556;2024-03-02T01:39:11;16.53;;;6.27;;
73337;SDS011;61575;49.908;35.556;2024-03-02T01:42:13;15.10;;;5.97;;
73337;SDS011;61575;49.908;35.556;2024-03-02T01:45:15;16.23;;;6.27;;
73337;SDS011;61575;49.908;35.556;2024-03-02T01:48:17;15.15;;;5.68;;
73337;SDS011;61575;49.908;35.556;2024-03-02T01:51:21;16.10;;;6.65;;
73337;SDS011;61575;49.908;35.556;2024-03-02T01:54:23;18.52;;;7.22;;
73337;SDS011;61575;49.908;35.556;2024-03-02T01:57:25;17.80;;;7.43;;
73337;SDS011;61575;49.908;35.556;2024-03-02T02:00:27;15.93;;;6.50;;
73337;SDS011;61575;49.908;35.556;2024-03-02T02:03:29;15.70;;;7.15;;
73337;SDS011;61575;49.908;35.556;2024-03-02T02:06:32;14.90;;;7.23;;
73337;SDS011;61575;49.908;35.556;2024-03-02T02:09:34;13.73;;;6.35;;
73337;SDS011;61575;49.908;35.556;2024-03-02T02:12:36;16.70;;;6.23;;
73337;SDS011;61575;49.908;35.556;2024-03-02T02:15:38;14.67;;;5.87;;
73337;SDS011;61575;49.908;35.556;2024-03-02T02:18:40;12.80;;;5.38;;
73337;SDS011;61575;49.908;35.556;2024-03-02T02:21:43;13.67;;;5.93;;
73337;SDS011;61575;49.908;35.556;2024-03-02T02:24:46;14.82;;;5.82;;
73337;SDS011;61575;49.908;35.556;2024-03-02T02:27:48;15.30;;;5.40;;
73337;SDS011;61575;49.908;35.556;2024-03-02T02:30:50;15.10;;;5.33;;
73337;SDS011;61575;49.908;35.556;2024-03-02T02:33:52;18.70;;;5.18;;
73337;SDS011;61575;49.908;35.556;2024-03-02T02:36:54;16.25;;;5.55;;
73337;SDS011;61575;49.908;35.556;2024-03-02T02:39:56;13.98;;;5.53;;
73337;SDS011;61575;49.908;35.556;2024-03-02T02:42:58;15.82;;;6.10;;
73337;SDS011;61575;49.908;35.556;2024-03-02T02:46:03;15.07;;;5.95;;
73337;SDS011;61575;49.908;35.556;2024-03-02T02:49:05;17.90;;;7.10;;
73337;SDS011;61575;49.908;35.556;2024-03-02T02:52:07;13.63;;;5.50;;
73337;SDS011;61575;49.908;35.556;2024-03-02T02:55:10;16.88;;;5.68;;
73337;SDS011;61575;49.908;35.556;2024-03-02T02:58:13;17.00;;;5.80;;
73337;SDS011;61575;49.908;35.556;2024-03-02T03:01:16;14.20;;;5.93;;
73337;SDS011;61575;49.908;35.556;2024-03-02T03:04:21;14.50;;;5.80;;
73337;SDS011;61575;49.908;35.556;2024-03-02T03:07:23;15.23;;;5.70;;
73337;SDS011;61575;49.908;35.556;2024-03-02T03:10:25;14.07;;;5.97;;
73337;SDS011;61575;49.908;35.556;2024-03-02T03:13:29;16.77;;;6.07;;
73337;SDS011;61575;49.908;35.556;2024-03-02T03:16:31;17.67;;;6.00;;
73337;SDS011;61575;49.908;35.556;2024-03-02T03:19:33;14.45;;;6.20;;
73337;SDS011;61575;49.908;35.556;2024-03-02T03:22:38;15.47;;;5.63;;
73337;SDS011;61575;49.908;35.556;2024-03-02T03:25:41;15.38;;;5.80;;
73337;SDS011;61575;49.908;35.556;2024-03-02T03:28:43;16.38;;;6.13;;
73337;SDS011;61575;49.908;35.556;2024-03-02T03:31:46;16.35;;;6.55;;
73337;SDS011;61575;49.908;35.556;2024-03-02T03:34:48;16.35;;;6.80;;
73337;SDS011;61575;49.908;35.556;2024-03-02T03:37:50;18.58;;;7.50;;
73337;SDS011;61575;49.908;35.556;2024-03-02T03:40:52;19.25;;;7.05;;
73337;SDS011;61575;49.908;35.556;2024-03-02T03:43:54;15.35;;;6.68;;
73337;SDS011;61575;49.908;35.556;2024-03-02T03:46:56;19.73;;;7.83;;
73337;SDS011;61575;49.908;35.556;2024-03-02T03:49:58;19.63;;;7.53;;
73337;SDS011;61575;49.908;35.556;2024-03-02T03:53:00;14.60;;;6.03;;
73337;SDS011;61575;49.908;35.556;2024-03-02T03:56:02;23.58;;;7.70;;
73337;SDS011;61575;49.908;35.556;2024-03-02T03:59:04;23.27;;;8.32;;
73337;SDS011;61575;49.908;35.556;2024-03-02T04:02:06;24.13;;;8.63;;
73337;SDS011;61575;49.908;35.556;2024-03-02T04:05:09;19.90;;;7.43;;
73337;SDS011;61575;49.908;35.556;2024-03-02T04:08:13;14.65;;;6.68;;
73337;SDS011;61575;49.908;35.556;2024-03-02T04:11:15;12.93;;;5.93;;
73337;SDS011;61575;49.908;35.556;2024-03-02T04:14:17;15.65;;;6.07;;
73337;SDS011;61575;49.908;35.556;2024-03-02T04:17:19;17.95;;;6.60;;
73337;SDS011;61575;49.908;35.556;2024-03-02T04:20:21;14.93;;;6.00;;
73337;SDS011;61575;49.908;35.556;2024-03-02T04:23:23;13.73;;;5.70;;
73337;SDS011;61575;49.908;35.556;2024-03-02T04:26:25;15.32;;;5.65;;
73337;SDS011;61575;49.908;35.556;2024-03-02T04:29:27;14.38;;;5.55;;
73337;SDS011;61575;49.908;35.556;2024-03-02T04:32:29;18.90;;;6.03;;
73337;SDS011;61575;49.908;35.556;2024-03-02T04:35:31;11.57;;;4.90;;
73337;SDS011;61575;49.908;35.556;2024-03-02T04:38:33;12.30;;;5.03;;
73337;SDS011;61575;49.908;35.556;2024-03-02T04:41:35;13.25;;;4.97;;
73337;SDS011;61575;49.908;35.556;2024-03-02T04:44:37;14.17;;;5.80;;
73337;SDS011;61575;49.908;35.556;2024-03-02T04:47:39;16.50;;;5.50;;
73337;SDS011;61575;49.908;35.556;2024-03-02T04:50:41;11.75;;;5.32;;
73337;SDS011;61575;49.908;35.556;2024-03-02T04:53:44;11.90;;;4.87;;
73337;SDS011;61575;49.908;35.556;2024-03-02T04:59:52;11.27;;;4.43;;
73337;SDS011;61575;49.908;35.556;2024-03-02T05:02:54;13.27;;;4.70;;
73337;SDS011;61575;49.908;35.556;2024-03-02T05:05:56;15.38;;;5.03;;
73337;SDS011;61575;49.908;35.556;2024-03-02T05:08:58;13.93;;;5.07;;
73337;SDS011;61575;49.908;35.556;2024-03-02T05:12:00;14.70;;;5.20;;
73337;SDS011;61575;49.908;35.556;2024-03-02T05:15:19;14.68;;;5.40;;
73337;SDS011;61575;49.908;35.556;2024-03-02T05:18:21;14.03;;;5.60;;
73337;SDS011;61575;49.908;35.556;2024-03-02T05:21:23;18.47;;;5.60;;
73337;SDS011;61575;49.908;35.556;2024-03-02T05:24:25;14.40;;;5.57;;
73337;SDS011;61575;49.908;35.556;2024-03-02T05:27:29;13.70;;;4.90;;
73337;SDS011;61575;49.908;35.556;2024-03-02T05:30:31;16.23;;;5.95;;
73337;SDS011;61575;49.908;35.556;2024-03-02T05:33:34;17.03;;;5.43;;
73337;SDS011;61575;49.908;35.556;2024-03-02T05:36:36;11.40;;;4.90;;
73337;SDS011;61575;49.908;35.556;2024-03-02T05:39:40;14.00;;;4.82;;
73337;SDS011;61575;49.908;35.556;2024-03-02T05:42:42;16.10;;;6.10;;
73337;SDS011;61575;49.908;35.556;2024-03-02T05:45:44;16.63;;;5.87;;
73337;SDS011;61575;49.908;35.556;2024-03-02T05:48:46;10.82;;;4.88;;
73337;SDS011;61575;49.908;35.556;2024-03-02T05:51:48;14.48;;;5.50;;
73337;SDS011;61575;49.908;35.556;2024-03-02T05:54:50;15.25;;;5.07;;
73337;SDS011;61575;49.908;35.556;2024-03-02T05:57:52;17.57;;;5.80;;
73337;SDS011;61575;49.908;35.556;2024-03-02T06:01:14;18.00;;;5.15;;
73337;SDS011;61575;49.908;35.556;2024-03-02T06:04:16;15.43;;;6.40;;
73337;SDS011;61575;49.908;35.556;2024-03-02T06:07:18;13.82;;;5.10;;
73337;SDS011;61575;49.908;35.556;2024-03-02T06:10:20;14.15;;;5.32;;
73337;SDS011;61575;49.908;35.556;2024-03-02T06:13:22;12.80;;;5.47;;
73337;SDS011;61575;49.908;35.556;2024-03-02T06:16:24;15.03;;;5.37;;
73337;SDS011;61575;49.908;35.556;2024-03-02T06:19:26;15.20;;;4.77;;
73337;SDS011;61575;49.908;35.556;2024-03-02T06:22:29;14.48;;;5.90;;
73337;SDS011;61575;49.908;35.556;2024-03-02T06:25:31;17.48;;;5.30;;
73337;SDS011;61575;49.908;35.556;2024-03-02T06:28:33;14.93;;;4.38;;
73337;SDS011;61575;49.908;35.556;2024-03-02T06:31:35;15.55;;;5.40;;
73337;SDS011;61575;49.908;35.556;2024-03-02T06:34:37;14.40;;;4.53;;
73337;SDS011;61575;49.908;35.556;2024-03-02T06:37:39;15.82;;;6.70;;
73337;SDS011;61575;49.908;35.556;2024-03-02T06:40:41;14.67;;;4.37;;
73337;SDS011;61575;49.908;35.556;2024-03-02T06:43:43;14.77;;;4.72;;
73337;SDS011;61575;49.908;35.556;2024-03-02T06:46:45;14.27;;;4.68;;
73337;SDS011;61575;49.908;35.556;2024-03-02T06:49:47;17.40;;;4.63;;
73337;SDS011;61575;49.908;35.556;2024-03-02T06:52:49;16.55;;;4.72;;
73337;SDS011;61575;49.908;35.556;2024-03-02T06:55:51;13.75;;;4.78;;
73337;SDS011;61575;49.908;35.556;2024-03-02T06:58:53;13.38;;;5.05;;
73337;SDS011;61575;49.908;35.556;2024-03-02T07:01:55;17.83;;;5.32;;
73337;SDS011;61575;49.908;35.556;2024-03-02T07:04:58;13.45;;;4.97;;
73337;SDS011;61575;49.908;35.556;2024-03-02T07:08:00;14.57;;;5.50;;
73337;SDS011;61575;49.908;35.556;2024-03-02T07:11:04;16.60;;;5.07;;
73337;SDS011;61575;49.908;35.556;2024-03-02T07:14:06;16.50;;;5.27;;
73337;SDS011;61575;49.908;35.556;2024-03-02T07:17:08;13.47;;;4.67;;
73337;SDS011;61575;49.908;35.556;2024-03-02T07:20:11;13.23;;;4.97;;
73337;SDS011;61575;49.908;35.556;2024-03-02T07:23:13;15.75;;;4.82;;
73337;SDS011;61575;49.908;35.556;2024-03-02T07:26:15;17.65;;;5.75;;
73337;SDS011;61575;49.908;35.556;2024-03-02T07:29:22;15.77;;;5.20;;
73337;SDS011;61575;49.908;35.556;2024-03-02T07:32:24;17.85;;;5.38;;
73337;SDS011;61575;49.908;35.556;2024-03-02T07:35:26;13.50;;;4.93;;
73337;SDS011;61575;49.908;35.556;2024-03-02T07:38:29;16.98;;;5.35;;
73337;SDS011;61575;49.908;35.556;2024-03-02T07:41:31;14.43;;;5.57;;
73337;SDS011;61575;49.908;35.556;2024-03-02T07:44:34;12.38;;;4.80;;
73337;SDS011;61575;49.908;35.556;2024-03-02T07:47:36;14.10;;;5.70;;
73337;SDS011;61575;49.908;35.556;2024-03-02T07:50:38;18.13;;;6.07;;
73337;SDS011;61575;49.908;35.556;2024-03-02T07:53:40;12.50;;;4.83;;
73337;SDS011;61575;49.908;35.556;2024-03-02T07:56:42;19.45;;;7.38;;
73337;SDS011;61575;49.908;35.556;2024-03-02T07:59:44;15.80;;;5.93;;
73337;SDS011;61575;49.908;35.556;2024-03-02T08:02:47;48.50;;;20.93;;
73337;SDS011;61575;49.908;35.556;2024-03-02T08:05:49;25.17;;;11.40;;
73337;SDS011;61575;49.908;35.556;2024-03-02T08:08:51;29.43;;;9.80;;
73337;SDS011;61575;49.908;35.556;2024-03-02T08:11:53;19.73;;;6.57;;
73337;SDS011;61575;49.908;35.556;2024-03-02T08:14:55;19.58;;;7.70;;
73337;SDS011;61575;49.908;35.556;2024-03-02T08:17:57;13.45;;;4.95;;
73337;SDS011;61575;49.908;35.556;2024-03-02T08:20:59;16.73;;;4.70;;
73337;SDS011;61575;49.908;35.556;2024-03-02T08:24:02;14.18;;;4.85;;
73337;SDS011;61575;49.908;35.556;2024-03-02T08:27:04;18.95;;;5.30;;
73337;SDS011;61575;49.908;35.556;2024-03-02T08:30:06;17.38;;;5.90;;
73337;SDS011;61575;49.908;35.556;2024-03-02T08:33:10;17.08;;;5.45;;
73337;SDS011;61575;49.908;35.556;2024-03-02T08:36:12;14.40;;;4.67;;
73337;SDS011;61575;49.908;35.556;2024-03-02T08:39:14;14.67;;;4.93;;
73337;SDS011;61575;49.908;35.556;2024-03-02T08:42:19;14.90;;;4.40;;
73337;SDS011;61575;49.908;35.556;2024-03-02T08:45:21;15.87;;;4.97;;
73337;SDS011;61575;49.908;35.556;2024-03-02T08:48:23;15.40;;;4.82;;
73337;SDS011;61575;49.908;35.556;2024-03-02T08:51:25;14.80;;;4.50;;
73337;SDS011;61575;49.908;35.556;2024-03-02T08:58:07;25.60;;;14.32;;
73337;SDS011;61575;49.908;35.556;2024-03-02T09:01:10;14.27;;;5.47;;
73337;SDS011;61575;49.908;35.556;2024-03-02T09:07:14;17.30;;;6.25;;
73337;SDS011;61575;49.908;35.556;2024-03-02T09:10:16;14.27;;;4.13;;
73337;SDS011;61575;49.908;35.556;2024-03-02T09:13:18;12.17;;;3.77;;
73337;SDS011;61575;49.908;35.556;2024-03-02T09:16:21;11.27;;;4.80;;
73337;SDS011;61575;49.908;35.556;2024-03-02T09:19:23;21.77;;;8.33;;
73337;SDS011;61575;49.908;35.556;2024-03-02T09:22:25;26.20;;;12.18;;
73337;SDS011;61575;49.908;35.556;2024-03-02T09:25:27;29.27;;;9.60;;
73337;SDS011;61575;49.908;35.556;2024-03-02T09:28:29;34.37;;;15.87;;
73337;SDS011;61575;49.908;35.556;2024-03-02T09:31:31;14.63;;;4.60;;
73337;SDS011;61575;49.908;35.556;2024-03-02T09:34:33;17.07;;;5.10;;
73337;SDS011;61575;49.908;35.556;2024-03-02T09:37:35;14.93;;;5.27;;
73337;SDS011;61575;49.908;35.556;2024-03-02T09:40:37;13.97;;;4.30;;
73337;SDS011;61575;49.908;35.556;2024-03-02T09:43:39;16.33;;;4.30;;
73337;SDS011;61575;49.908;35.556;2024-03-02T09:46:42;18.27;;;4.43;;
73337;SDS011;61575;49.908;35.556;2024-03-02T09:49:46;13.38;;;4.38;;
73337;SDS011;61575;49.908;35.556;2024-03-02T09:52:48;12.90;;;4.72;;
73337;SDS011;61575;49.908;35.556;2024-03-02T09:55:53;15.32;;;4.95;;
73337;SDS011;61575;49.908;35.556;2024-03-02T09:58:55;18.13;;;5.38;;
73337;SDS011;61575;49.908;35.556;2024-03-02T10:01:58;15.80;;;4.90;;
73337;SDS011;61575;49.908;35.556;2024-03-02T10:05:01;16.25;;;4.32;;
73337;SDS011;61575;49.908;35.556;2024-03-02T10:08:05;17.85;;;5.55;;
73337;SDS011;61575;49.908;35.556;2024-03-02T10:11:08;15.48;;;5.00;;
73337;SDS011;61575;49.908;35.556;2024-03-02T10:14:11;12.97;;;3.97;;
73337;SDS011;61575;49.908;35.556;2024-03-02T10:17:16;11.65;;;4.57;;
73337;SDS011;61575;49.908;35.556;2024-03-02T10:20:22;16.08;;;4.55;;
73337;SDS011;61575;49.908;35.556;2024-03-02T10:23:25;15.25;;;5.03;;
73337;SDS011;61575;49.908;35.556;2024-03-02T10:26:27;15.13;;;5.53;;
73337;SDS011;61575;49.908;35.556;2024-03-02T10:29:30;17.25;;;5.55;;
73337;SDS011;61575;49.908;35.556;2024-03-02T10:32:32;14.73;;;5.60;;
73337;SDS011;61575;49.908;35.556;2024-03-02T10:35:34;16.30;;;5.90;;
73337;SDS011;61575;49.908;35.556;2024-03-02T10:38:40;12.48;;;5.40;;
73337;SDS011;61575;49.908;35.556;2024-03-02T10:41:42;14.48;;;4.57;;
73337;SDS011;61575;49.908;35.556;2024-03-02T10:44:46;16.85;;;5.57;;
73337;SDS011;61575;49.908;35.556;2024-03-02T10:47:50;12.88;;;5.45;;
73337;SDS011;61575;49.908;35.556;2024-03-02T10:50:52;16.40;;;5.28;;
73337;SDS011;61575;49.908;35.556;2024-03-02T10:53:54;18.15;;;5.25;;
73337;SDS011;61575;49.908;35.556;2024-03-02T10:56:58;10.50;;;4.55;;
73337;SDS011;61575;49.908;35.556;2024-03-02T11:00:02;11.50;;;5.47;;
73337;SDS011;61575;49.908;35.556;2024-03-02T11:03:05;17.42;;;6.95;;
73337;SDS011;61575;49.908;35.556;2024-03-02T11:06:10;13.07;;;4.65;;
73337;SDS011;61575;49.908;35.556;2024-03-02T11:09:14;16.13;;;4.68;;
73337;SDS011;61575;49.908;35.556;2024-03-02T11:12:29;16.42;;;5.43;;
73337;SDS011;61575;49.908;35.556;2024-03-02T11:15:33;17.83;;;5.53;;
73337;SDS011;61575;49.908;35.556;2024-03-02T11:18:37;19.35;;;8.05;;
73337;SDS011;61575;49.908;35.556;2024-03-02T11:21:40;27.75;;;11.35;;
73337;SDS011;61575;49.908;35.556;2024-03-02T11:24:49;14.85;;;5.72;;
73337;SDS011;61575;49.908;35.556;2024-03-02T11:30:55;14.83;;;5.80;;
73337;SDS011;61575;49.908;35.556;2024-03-02T11:33:57;12.95;;;4.78;;
73337;SDS011;61575;49.908;35.556;2024-03-02T11:37:19;15.20;;;5.72;;
73337;SDS011;61575;49.908;35.556;2024-03-02T11:40:22;13.77;;;6.13;;
73337;SDS011;61575;49.908;35.556;2024-03-02T11:43:25;15.87;;;6.23;;
73337;SDS011;61575;49.908;35.556;2024-03-02T11:46:29;19.13;;;6.38;;
73337;SDS011;61575;49.908;35.556;2024-03-02T11:49:38;14.80;;;4.80;;
73337;SDS011;61575;49.908;35.556;2024-03-02T11:52:42;10.10;;;4.72;;
73337;SDS011;61575;49.908;35.556;2024-03-02T11:55:45;17.52;;;5.18;;
73337;SDS011;61575;49.908;35.556;2024-03-02T11:58:48;16.10;;;5.38;;
73337;SDS011;61575;49.908;35.556;2024-03-02T12:01:54;11.95;;;5.35;;
73337;SDS011;61575;49.908;35.556;2024-03-02T12:04:57;11.38;;;4.70;;
73337;SDS011;61575;49.908;35.556;2024-03-02T12:07:59;12.47;;;5.93;;
73337;SDS011;61575;49.908;35.556;2024-03-02T12:11:02;11.10;;;4.97;;
73337;SDS011;61575;49.908;35.556;2024-03-02T12:17:13;12.73;;;4.80;;
73337;SDS011;61575;49.908;35.556;2024-03-02T12:20:18;12.55;;;5.20;;
73337;SDS011;61575;49.908;35.556;2024-03-02T12:23:20;12.80;;;5.13;;
73337;SDS011;61575;49.908;35.556;2024-03-02T12:26:22;14.57;;;5.60;;
73337;SDS011;61575;49.908;35.556;2024-03-02T12:29:25;15.65;;;7.03;;
73337;SDS011;61575;49.908;35.556;2024-03-02T12:32:28;12.15;;;5.10;;
73337;SDS011;61575;49.908;35.556;2024-03-02T12:35:30;12.23;;;6.03;;
73337;SDS011;61575;49.908;35.556;2024-03-02T12:38:32;12.43;;;5.47;;
73337;SDS011;61575;49.908;35.556;2024-03-02T12:41:35;14.35;;;5.20;;
73337;SDS011;61575;49.908;35.556;2024-03-02T12:44:40;11.65;;;5.10;;
73337;SDS011;61575;49.908;35.556;2024-03-02T12:47:42;11.93;;;4.90;;
73337;SDS011;61575;49.908;35.556;2024-03-02T12:50:45;8.77;;;4.47;;
73337;SDS011;61575;49.908;35.556;2024-03-02T12:53:52;9.90;;;4.27;;
73337;SDS011;61575;49.908;35.556;2024-03-02T12:57:05;11.20;;;4.45;;
73337;SDS011;61575;49.908;35.556;2024-03-02T13:00:07;14.53;;;5.63;;
73337;SDS011;61575;49.908;35.556;2024-03-02T13:03:13;10.55;;;5.25;;
73337;SDS011;61575;49.908;35.556;2024-03-02T13:06:17;13.82;;;7.65;;
73337;SDS011;61575;49.908;35.556;2024-03-02T13:12:23;12.55;;;4.15;;
73337;SDS011;61575;49.908;35.556;2024-03-02T13:15:26;17.08;;;8.68;;
73337;SDS011;61575;49.908;35.556;2024-03-02T13:18:29;12.27;;;5.95;;
73337;SDS011;61575;49.908;35.556;2024-03-02T13:21:31;11.45;;;5.30;;
73337;SDS011;61575;49.908;35.556;2024-03-02T13:24:33;14.25;;;6.63;;
73337;SDS011;61575;49.908;35.556;2024-03-02T13:27:35;11.40;;;4.30;;
73337;SDS011;61575;49.908;35.556;2024-03-02T13:30:37;9.70;;;4.63;;
73337;SDS011;61575;49.908;35.556;2024-03-02T13:33:39;23.42;;;6.20;;
73337;SDS011;61575;49.908;35.556;2024-03-02T13:36:41;10.63;;;4.80;;
73337;SDS011;61575;49.908;35.556;2024-03-02T13:39:43;27.55;;;9.90;;
73337;SDS011;61575;49.908;35.556;2024-03-02T13:42:45;14.07;;;6.07;;
73337;SDS011;61575;49.908;35.556;2024-03-02T13:45:48;10.75;;;4.28;;
73337;SDS011;61575;49.908;35.556;2024-03-02T13:48:51;33.28;;;15.55;;
73337;SDS011;61575;49.908;35.556;2024-03-02T13:51:59;12.32;;;4.97;;
73337;SDS011;61575;49.908;35.556;2024-03-02T13:55:05;11.40;;;4.20;;
73337;SDS011;61575;49.908;35.556;2024-03-02T13:58:09;12.00;;;4.90;;
73337;SDS011;61575;49.908;35.556;2024-03-02T14:01:11;27.67;;;18.27;;
73337;SDS011;61575;49.908;35.556;2024-03-02T14:04:13;37.95;;;25.42;;
73337;SDS011;61575;49.908;35.556;2024-03-02T14:07:15;16.30;;;10.75;;
73337;SDS011;61575;49.908;35.556;2024-03-02T14:10:18;10.20;;;6.85;;
73337;SDS011;61575;49.908;35.556;2024-03-02T14:13:23;9.75;;;4.78;;
73337;SDS011;61575;49.908;35.556;2024-03-02T14:16:27;11.00;;;4.85;;
73337;SDS011;61575;49.908;35.556;2024-03-02T14:19:29;11.50;;;5.10;;
73337;SDS011;61575;49.908;35.556;2024-03-02T14:22:31;10.70;;;4.55;;
73337;SDS011;61575;49.908;35.556;2024-03-02T14:25:33;10.77;;;5.38;;
73337;SDS011;61575;49.908;35.556;2024-03-02T14:28:35;12.17;;;5.20;;
73337;SDS011;61575;49.908;35.556;2024-03-02T14:31:42;13.00;;;6.00;;
73337;SDS011;61575;49.908;35.556;2024-03-02T14:34:45;11.00;;;4.78;;
73337;SDS011;61575;49.908;35.556;2024-03-02T14:37:48;12.05;;;5.85;;
73337;SDS011;61575;49.908;35.556;2024-03-02T14:40:50;12.63;;;6.20;;
73337;SDS011;61575;49.908;35.556;2024-03-02T14:43:54;15.35;;;6.32;;
73337;SDS011;61575;49.908;35.556;2024-03-02T14:46:56;17.20;;;6.23;;
73337;SDS011;61575;49.908;35.556;2024-03-02T14:50:01;17.33;;;6.65;;
73337;SDS011;61575;49.908;35.556;2024-03-02T14:53:10;12.45;;;5.30;;
73337;SDS011;61575;49.908;35.556;2024-03-02T14:56:12;12.02;;;5.45;;
73337;SDS011;61575;49.908;35.556;2024-03-02T14:59:17;11.43;;;5.65;;
73337;SDS011;61575;49.908;35.556;2024-03-02T15:02:19;15.30;;;6.80;;
73337;SDS011;61575;49.908;35.556;2024-03-02T15:05:21;15.55;;;6.82;;
73337;SDS011;61575;49.908;35.556;2024-03-02T15:08:23;14.35;;;5.72;;
73337;SDS011;61575;49.908;35.556;2024-03-02T15:11:26;9.98;;;5.25;;
73337;SDS011;61575;49.908;35.556;2024-03-02T15:14:28;13.10;;;6.10;;
73337;SDS011;61575;49.908;35.556;2024-03-02T15:17:30;15.25;;;6.43;;
73337;SDS011;61575;49.908;35.556;2024-03-02T15:20:32;16.97;;;7.90;;
73337;SDS011;61575;49.908;35.556;2024-03-02T15:23:34;18.63;;;9.00;;
73337;SDS011;61575;49.908;35.556;2024-03-02T15:26:36;27.10;;;12.17;;
73337;SDS011;61575;49.908;35.556;2024-03-02T15:29:39;32.40;;;12.67;;
73337;SDS011;61575;49.908;35.556;2024-03-02T15:32:41;34.53;;;14.70;;
73337;SDS011;61575;49.908;35.556;2024-03-02T15:35:43;32.60;;;12.83;;
73337;SDS011;61575;49.908;35.556;2024-03-02T15:38:45;35.28;;;14.95;;
73337;SDS011;61575;49.908;35.556;2024-03-02T15:41:47;36.25;;;15.48;;
73337;SDS011;61575;49.908;35.556;2024-03-02T15:44:49;76.85;;;25.63;;
73337;SDS011;61575;49.908;35.556;2024-03-02T15:47:51;63.30;;;24.37;;
73337;SDS011;61575;49.908;35.556;2024-03-02T15:50:53;64.67;;;26.23;;
73337;SDS011;61575;49.908;35.556;2024-03-02T15:53:55;60.90;;;26.23;;
73337;SDS011;61575;49.908;35.556;2024-03-02T15:56:57;66.75;;;26.85;;
73337;SDS011;61575;49.908;35.556;2024-03-02T15:59:59;72.10;;;30.20;;
73337;SDS011;61575;49.908;35.556;2024-03-02T16:03:11;75.68;;;31.88;;
73337;SDS011;61575;49.908;35.556;2024-03-02T16:06:13;63.30;;;27.17;;
73337;SDS011;61575;49.908;35.556;2024-03-02T16:09:17;65.72;;;26.05;;
73337;SDS011;61575;49.908;35.556;2024-03-02T16:15:21;48.83;;;20.98;;
73337;SDS011;61575;49.908;35.556;2024-03-02T16:18:23;50.63;;;20.17;;
73337;SDS011;61575;49.908;35.556;2024-03-02T16:21:25;54.30;;;24.70;;
73337;SDS011;61575;49.908;35.556;2024-03-02T16:24:27;54.45;;;22.38;;
73337;SDS011;61575;49.908;35.556;2024-03-02T16:27:29;38.40;;;17.60;;
73337;SDS011;61575;49.908;35.556;2024-03-02T16:30:32;34.78;;;15.20;;
73337;SDS011;61575;49.908;35.556;2024-03-02T16:33:34;22.13;;;9.88;;
73337;SDS011;61575;49.908;35.556;2024-03-02T16:36:36;23.40;;;9.07;;
73337;SDS011;61575;49.908;35.556;2024-03-02T16:39:39;14.82;;;5.80;;
73337;SDS011;61575;49.908;35.556;2024-03-02T16:42:42;12.70;;;5.50;;
73337;SDS011;61575;49.908;35.556;2024-03-02T16:45:44;9.43;;;4.75;;
73337;SDS011;61575;49.908;35.556;2024-03-02T16:48:46;21.17;;;8.40;;
73337;SDS011;61575;49.908;35.556;2024-03-02T16:51:48;25.13;;;9.75;;
73337;SDS011;61575;49.908;35.556;2024-03-02T16:54:50;22.33;;;8.70;;
73337;SDS011;61575;49.908;35.556;2024-03-02T16:57:53;59.45;;;23.05;;
73337;SDS011;61575;49.908;35.556;2024-03-02T17:00:56;22.05;;;11.52;;
73337;SDS011;61575;49.908;35.556;2024-03-02T17:03:58;32.95;;;19.02;;
73337;SDS011;61575;49.908;35.556;2024-03-02T17:07:01;21.60;;;11.55;;
73337;SDS011;61575;49.908;35.556;2024-03-02T17:10:03;15.18;;;7.95;;
73337;SDS011;61575;49.908;35.556;2024-03-02T17:13:06;12.73;;;6.40;;
73337;SDS011;61575;49.908;35.556;2024-03-02T17:16:10;13.38;;;6.45;;
73337;SDS011;61575;49.908;35.556;2024-03-02T17:19:12;11.68;;;4.97;;
73337;SDS011;61575;49.908;35.556;2024-03-02T17:22:14;10.32;;;5.18;;
73337;SDS011;61575;49.908;35.556;2024-03-02T17:25:16;9.15;;;4.68;;
73337;SDS011;61575;49.908;35.556;2024-03-02T17:28:19;8.83;;;4.53;;
73337;SDS011;61575;49.908;35.556;2024-03-02T17:31:26;8.05;;;4.38;;
73337;SDS011;61575;49.908;35.556;2024-03-02T17:34:28;7.87;;;4.07;;
73337;SDS011;61575;49.908;35.556;2024-03-02T17:37:30;9.27;;;4.07;;
73337;SDS011;61575;49.908;35.556;2024-03-02T17:43:35;8.15;;;4.38;;
73337;SDS011;61575;49.908;35.556;2024-03-02T17:46:37;11.07;;;4.95;;
73337;SDS011;61575;49.908;35.556;2024-03-02T17:49:39;12.93;;;5.27;;
73337;SDS011;61575;49.908;35.556;2024-03-02T17:52:41;10.98;;;4.68;;
73337;SDS011;61575;49.908;35.556;2024-03-02T17:55:43;9.35;;;4.93;;
73337;SDS011;61575;49.908;35.556;2024-03-02T17:58:46;10.18;;;5.00;;
73337;SDS011;61575;49.908;35.556;2024-03-02T18:01:48;9.48;;;4.50;;
73337;SDS011;61575;49.908;35.556;2024-03-02T18:04:50;12.57;;;5.93;;
73337;SDS011;61575;49.908;35.556;2024-03-02T18:07:53;11.10;;;6.45;;
73337;SDS011;61575;49.908;35.556;2024-03-02T18:10:55;12.70;;;5.68;;
73337;SDS011;61575;49.908;35.556;2024-03-02T18:13:57;14.02;;;6.40;;
73337;SDS011;61575;49.908;35.556;2024-03-02T18:17:00;10.57;;;6.30;;
73337;SDS011;61575;49.908;35.556;2024-03-02T18:20:02;12.45;;;6.00;;
73337;SDS011;61575;49.908;35.556;2024-03-02T18:23:06;12.25;;;6.68;;